Gardouch

FR-0747 · Alto Garona, Occitanie, Francia

METAR pasados FR-0747 · Gardouch

A continuación puedes ver los METAR de los últimos días. Selecciona un año para ver los METAR más antiguos, desde el año 2007 en adelante.

15 de julio de 2024

Hora Código Tiempo Temp. Visibilidad Cielo nuboso Viento METAR/SPECI
19:00
V
27 °C 10 km+ 7.200 ft 330° 330° 11 kt METAR LFBF 151700Z AUTO 33011KT 9999 FEW038 BKN072 27/18 Q1013
18:30
V
28 °C 10 km+ - 330° 330° 10 kt METAR LFBF 151630Z AUTO 33010KT 300V010 CAVOK 28/18 Q1013
18:00
V
28 °C 10 km+ - 320° 320° 11 kt METAR LFBF 151600Z AUTO 32011KT 280V340 CAVOK 28/18 Q1013
17:30
V
27 °C 10 km+ - 300° 300° 12 kt METAR LFBF 151530Z AUTO 30012KT CAVOK 27/17 Q1013
17:00
V
28 °C 10 km+ - 310° 310° 12 kt METAR LFBF 151500Z AUTO 31012KT 280V340 CAVOK 28/17 Q1013
16:30
V
28 °C 10 km+ - 320° 320° 15 kt METAR LFBF 151430Z AUTO 32015KT CAVOK 28/16 Q1013
16:00
V
28 °C 10 km+ - 330° 330° 14 kt METAR LFBF 151400Z AUTO 33014KT CAVOK 28/16 Q1013
15:30
V
28 °C 10 km+ - 320° 320° 14 kt METAR LFBF 151330Z AUTO 32014KT CAVOK 28/17 Q1013
15:00
V
28 °C 10 km+ - 340° 340° 11 kt METAR LFBF 151300Z AUTO 34011KT CAVOK 28/17 Q1012
14:30
V
30 °C 10 km+ - 320° 320° 15 kt METAR LFBF 151230Z AUTO 32015KT CAVOK 30/18 Q1012
14:00
V
29 °C 10 km+ 4.800 ft 330° 330° 16 kt METAR LFBF 151200Z AUTO 33016KT 9999 BKN048 BKN064 29/18 Q1012
13:30
V
29 °C 10 km+ - 360° 360° 8 kt METAR LFBF 151130Z AUTO 36008KT 320V040 CAVOK 29/19 Q1012
13:00
V
30 °C 10 km+ - Var Var 3 kt METAR LFBF 151100Z AUTO VRB03KT CAVOK 30/20 Q1011
12:30
V
28 °C 10 km+ - 140° 140° 4 kt METAR LFBF 151030Z AUTO 14004KT 090V180 CAVOK 28/20 Q1011
12:00
V
29 °C 10 km+ 17.000 ft 170° 170° 6 kt METAR LFBF 151000Z AUTO 17006KT 130V240 9999 FEW027 BKN170 29/21 Q1011
11:30
V
28 °C 10 km+ - 190° 190° 5 kt METAR LFBF 150930Z AUTO 19005KT 130V240 9999 FEW028 28/20 Q1011
11:00
V
27 °C 10 km+ - 140° 140° 10 kt METAR LFBF 150900Z AUTO 14010KT 100V190 CAVOK 27/21 Q1009
10:30
V
0 °C 10 km+ - 140° 140° 9 kt METAR LFBF 150830Z AUTO 14009KT 100V180 CAVOK ///// Q1009
10:00
V
0 °C 10 km+ - 140° 140° 9 - 21 kt METAR LFBF 150800Z AUTO 14009G21KT 100V200 CAVOK ///// Q1009
09:30
V
0 °C 10 km+ - 150° 150° 10 kt METAR LFBF 150730Z AUTO 15010KT 110V190 CAVOK ///// Q1009
09:00
V
0 °C 10 km+ - 150° 150° 10 kt METAR LFBF 150700Z AUTO 15010KT 100V190 9999 FEW014 ///// Q1009
08:30
V
0 °C 10 km+ - 150° 150° 9 kt METAR LFBF 150630Z AUTO 15009KT 110V180 9999 FEW014 ///// Q1009
08:00
V
0 °C 10 km+ - 140° 140° 9 kt METAR LFBF 150600Z AUTO 14009KT 110V180 9999 FEW015 ///// Q1009
07:30
V
0 °C 10 km+ - 140° 140° 9 kt METAR LFBF 150530Z AUTO 14009KT 090V180 9999 FEW014 ///// Q1009
07:00
V
0 °C 10 km+ - 140° 140° 8 kt METAR LFBF 150500Z AUTO 14008KT 100V180 CAVOK ///// Q1009
06:30
V
0 °C 10 km+ - 140° 140° 6 kt METAR LFBF 150430Z AUTO 14006KT 090V190 CAVOK ///// Q1009
06:00
V
0 °C 10 km+ - 140° 140° 9 kt METAR LFBF 150400Z AUTO 14009KT 090V180 9999 FEW013 ///// Q1009

14 de julio de 2024

Hora Código Tiempo Temp. Visibilidad Cielo nuboso Viento METAR/SPECI
21:00
V
0 °C 10 km+ - 010° 010° 7 kt METAR LFBF 141900Z AUTO 01007KT CAVOK ///// Q1012
20:30
V
0 °C 10 km+ 9.600 ft 010° 010° 9 kt METAR LFBF 141830Z AUTO 01009KT 9999 FEW001 BKN096 BKN120 ///// Q1011
20:00
V
0 °C 10 km+ - 350° 350° 8 kt METAR LFBF 141800Z AUTO 35008KT CAVOK ///// Q1011
19:30
V
0 °C 10 km+ - 340° 340° 5 kt METAR LFBF 141730Z AUTO 34005KT 300V360 CAVOK ///// Q1011
19:00
V
0 °C 10 km+ - 350° 350° 7 kt METAR LFBF 141700Z AUTO 35007KT 330V030 CAVOK ///// Q1011
18:30
V
0 °C 10 km+ - Var Var 2 kt METAR LFBF 141630Z AUTO VRB02KT CAVOK ///// Q1011
18:00
V
0 °C 10 km+ - Var Var 3 kt METAR LFBF 141600Z AUTO VRB03KT CAVOK ///// Q1011
17:30
V
0 °C 10 km+ - Var Var 4 kt METAR LFBF 141530Z AUTO VRB04KT CAVOK ///// Q1011
17:00
V
0 °C 10 km+ - Var Var 4 kt METAR LFBF 141500Z AUTO VRB04KT CAVOK ///// Q1011
16:30
V
0 °C 10 km+ - 130° 130° 5 kt METAR LFBF 141430Z AUTO 13005KT 060V230 CAVOK ///// Q1011
16:00
V
0 °C 10 km+ - Var Var 4 kt METAR LFBF 141400Z AUTO VRB04KT CAVOK ///// Q1011
15:30
V
0 °C 10 km+ - 120° 120° 6 kt METAR LFBF 141330Z AUTO 12006KT 080V190 CAVOK ///// Q1011
15:00
V
0 °C 10 km+ - 130° 130° 5 kt METAR LFBF 141300Z AUTO 13005KT 070V210 CAVOK ///// Q1011
14:30
V
0 °C 10 km+ - 140° 140° 7 kt METAR LFBF 141230Z AUTO 14007KT 090V210 CAVOK ///// Q1011
14:00
V
0 °C 10 km+ - 130° 130° 7 kt METAR LFBF 141200Z AUTO 13007KT 090V170 CAVOK ///// Q1011
13:30
V
0 °C 10 km+ - 140° 140° 7 kt METAR LFBF 141130Z AUTO 14007KT 100V180 CAVOK ///// Q1011
13:00
V
0 °C 10 km+ - 140° 140° 8 kt METAR LFBF 141100Z AUTO 14008KT 100V180 CAVOK ///// Q1011
12:30
V
0 °C 10 km+ - 150° 150° 9 kt METAR LFBF 141030Z AUTO 15009KT 100V180 CAVOK ///// Q1011
12:00
V
0 °C 10 km+ - 130° 130° 12 kt METAR LFBF 141000Z AUTO 13012KT 090V170 CAVOK ///// Q1011
11:30
V
0 °C 10 km+ - 120° 120° 8 kt METAR LFBF 140930Z AUTO 12008KT 080V150 CAVOK ///// Q1011
11:00
V
0 °C 10 km+ - 120° 120° 9 kt METAR LFBF 140900Z AUTO 12009KT 080V190 CAVOK ///// Q1011
10:30
V
0 °C 10 km+ - 120° 120° 10 kt METAR LFBF 140830Z AUTO 12010KT 090V160 CAVOK ///// Q1011
10:00
V
0 °C 10 km+ - 140° 140° 7 kt METAR LFBF 140800Z AUTO 14007KT 080V210 CAVOK ///// Q1011
09:30
V
0 °C 10 km+ - Var Var 3 kt METAR LFBF 140730Z AUTO VRB03KT CAVOK ///// Q1011
09:00
V
0 °C 10 km+ - 360° 360° 0 kt METAR LFBF 140700Z AUTO 00000KT CAVOK ///// Q1011
08:30
V
0 °C 10 km+ - Var Var 1 kt METAR LFBF 140630Z AUTO VRB01KT CAVOK ///// Q1011
08:00
V
0 °C 10 km+ - 360° 360° 0 kt METAR LFBF 140600Z AUTO 00000KT CAVOK ///// Q1011
07:30
V
0 °C 10 km+ - 190° 190° 2 kt METAR LFBF 140530Z AUTO 19002KT CAVOK ///// Q1011
07:00
V
0 °C 10 km+ - Var Var 2 kt METAR LFBF 140500Z AUTO VRB02KT CAVOK ///// Q1011
06:30
V
0 °C 10 km+ - 170° 170° 2 kt METAR LFBF 140430Z AUTO 17002KT CAVOK ///// Q1011
06:00
V
0 °C 10 km+ - 190° 190° 2 kt METAR LFBF 140400Z AUTO 19002KT CAVOK ///// Q1011

13 de julio de 2024

Hora Código Tiempo Temp. Visibilidad Cielo nuboso Viento METAR/SPECI
21:00
V
0 °C 10 km+ - Var Var 3 kt METAR LFBF 131900Z AUTO VRB03KT CAVOK ///// Q1013
20:30
V
0 °C 10 km+ - 350° 350° 4 kt METAR LFBF 131830Z AUTO 35004KT 320V020 CAVOK ///// Q1013
20:00
V
0 °C 10 km+ - 010° 010° 4 kt METAR LFBF 131800Z AUTO 01004KT CAVOK ///// Q1013
19:30
V
0 °C 10 km+ - Var Var 2 kt METAR LFBF 131730Z AUTO VRB02KT CAVOK ///// Q1013
19:00
V
0 °C 10 km+ - 030° 030° 3 kt METAR LFBF 131700Z AUTO 03003KT 320V070 CAVOK ///// Q1013
18:30
V
0 °C 10 km+ - Var Var 3 kt METAR LFBF 131630Z AUTO VRB03KT CAVOK ///// Q1013
18:00
V
0 °C 10 km+ - 020° 020° 4 kt METAR LFBF 131600Z AUTO 02004KT 330V130 CAVOK ///// Q1013
17:30
V
0 °C 10 km+ - Var Var 3 kt METAR LFBF 131530Z AUTO VRB03KT CAVOK ///// Q1013
17:00
V
0 °C 10 km+ - Var Var 3 kt METAR LFBF 131500Z AUTO VRB03KT CAVOK ///// Q1014
16:30
V
0 °C 10 km+ - 350° 350° 4 kt METAR LFBF 131430Z AUTO 35004KT 250V050 CAVOK ///// Q1014
16:00
V
0 °C 10 km+ - Var Var 4 kt METAR LFBF 131400Z AUTO VRB04KT CAVOK ///// Q1014
15:30
V
0 °C 10 km+ - Var Var 6 kt METAR LFBF 131330Z AUTO VRB06KT CAVOK ///// Q1014
15:00
V
0 °C 10 km+ - 040° 040° 5 kt METAR LFBF 131300Z AUTO 04005KT 320V120 CAVOK ///// Q1014
14:30
V
0 °C 10 km+ - 360° 360° 6 kt METAR LFBF 131230Z AUTO 36006KT 300V030 CAVOK ///// Q1015
14:00
V
0 °C 10 km+ - Var Var 5 kt METAR LFBF 131200Z AUTO VRB05KT 9999 FEW046 ///// Q1015
13:30
V
0 °C 10 km+ - Var Var 2 kt METAR LFBF 131130Z AUTO VRB02KT 9999 FEW046 ///// Q1015
13:00
V
0 °C 10 km+ - Var Var 3 kt METAR LFBF 131100Z AUTO VRB03KT CAVOK ///// Q1015
12:30
V
0 °C 10 km+ 11.000 ft 350° 350° 4 kt METAR LFBF 131030Z AUTO 35004KT 270V060 9999 FEW040 BKN110 OVC220 ///// Q1016
12:00
V
0 °C 10 km+ 21.000 ft Var Var 4 kt METAR LFBF 131000Z AUTO VRB04KT 9999 SCT038 OVC210 ///// Q1016
11:30
V
0 °C 10 km+ 22.000 ft Var Var 4 kt METAR LFBF 130930Z AUTO VRB04KT 9999 SCT034 BKN220 ///// Q1016
11:00
V
0 °C 10 km+ 21.000 ft 350° 350° 6 kt METAR LFBF 130900Z AUTO 35006KT 320V050 9999 FEW031 BKN210 ///// Q1016
10:30
V
0 °C 10 km+ - 360° 360° 4 kt METAR LFBF 130830Z AUTO 36004KT 310V080 CAVOK ///// Q1016
10:00
V
18 °C 10 km+ - 020° 020° 5 kt METAR LFBF 130800Z AUTO 02005KT 330V060 CAVOK 18/11 Q1016
09:30
V
17 °C 10 km+ - 030° 030° 4 kt METAR LFBF 130730Z AUTO 03004KT 330V070 CAVOK 17/12 Q1017
09:00
V
16 °C 10 km+ - 360° 360° 4 kt METAR LFBF 130700Z AUTO 36004KT 330V040 CAVOK 16/11 Q1017
08:30
V
16 °C 10 km+ - Var Var 1 kt METAR LFBF 130630Z AUTO VRB01KT CAVOK 16/11 Q1017
08:00
V
15 °C 10 km+ - Var Var 1 kt METAR LFBF 130600Z AUTO VRB01KT CAVOK 15/11 Q1017
Cambiar esta información